sensor_id;sensor_type;location;lat;lon;timestamp;P1;durP1;ratioP1;P2;durP2;ratioP2
22378;SDS011;11357;49.990;7.370;2023-08-07T00:00:34;16.80;;;3.40;;
22378;SDS011;11357;49.990;7.370;2023-08-07T00:03:00;13.97;;;3.23;;
22378;SDS011;11357;49.990;7.370;2023-08-07T00:05:26;16.80;;;3.33;;
22378;SDS011;11357;49.990;7.370;2023-08-07T00:07:51;8.40;;;3.10;;
22378;SDS011;11357;49.990;7.370;2023-08-07T00:10:17;10.60;;;3.10;;
22378;SDS011;11357;49.990;7.370;2023-08-07T00:12:43;12.23;;;3.10;;
22378;SDS011;11357;49.990;7.370;2023-08-07T00:15:08;14.53;;;3.00;;
22378;SDS011;11357;49.990;7.370;2023-08-07T00:17:35;15.77;;;3.43;;
22378;SDS011;11357;49.990;7.370;2023-08-07T00:20:01;13.07;;;3.00;;
22378;SDS011;11357;49.990;7.370;2023-08-07T00:22:27;10.57;;;3.13;;
22378;SDS011;11357;49.990;7.370;2023-08-07T00:24:53;12.77;;;3.10;;
22378;SDS011;11357;49.990;7.370;2023-08-07T00:27:18;16.67;;;3.37;;
22378;SDS011;11357;49.990;7.370;2023-08-07T00:29:44;14.87;;;3.47;;
22378;SDS011;11357;49.990;7.370;2023-08-07T00:32:10;14.07;;;3.33;;
22378;SDS011;11357;49.990;7.370;2023-08-07T00:34:35;11.73;;;3.40;;
22378;SDS011;11357;49.990;7.370;2023-08-07T00:37:01;14.10;;;3.90;;
22378;SDS011;11357;49.990;7.370;2023-08-07T00:39:27;8.97;;;3.00;;
22378;SDS011;11357;49.990;7.370;2023-08-07T00:41:53;13.20;;;4.00;;
22378;SDS011;11357;49.990;7.370;2023-08-07T00:44:19;12.43;;;3.33;;
22378;SDS011;11357;49.990;7.370;2023-08-07T00:46:45;14.17;;;3.17;;
22378;SDS011;11357;49.990;7.370;2023-08-07T00:49:11;12.53;;;3.17;;
22378;SDS011;11357;49.990;7.370;2023-08-07T00:51:38;10.20;;;3.53;;
22378;SDS011;11357;49.990;7.370;2023-08-07T00:54:05;13.47;;;3.37;;
22378;SDS011;11357;49.990;7.370;2023-08-07T00:56:31;11.37;;;3.40;;
22378;SDS011;11357;49.990;7.370;2023-08-07T00:59:00;12.07;;;3.60;;
22378;SDS011;11357;49.990;7.370;2023-08-07T01:01:26;13.73;;;3.30;;
22378;SDS011;11357;49.990;7.370;2023-08-07T01:03:52;8.57;;;3.23;;
22378;SDS011;11357;49.990;7.370;2023-08-07T01:06:18;11.90;;;3.30;;
22378;SDS011;11357;49.990;7.370;2023-08-07T01:08:44;17.83;;;3.30;;
22378;SDS011;11357;49.990;7.370;2023-08-07T01:13:56;8.57;;;3.60;;
22378;SDS011;11357;49.990;7.370;2023-08-07T01:16:36;11.27;;;3.27;;
22378;SDS011;11357;49.990;7.370;2023-08-07T01:19:09;8.07;;;2.90;;
22378;SDS011;11357;49.990;7.370;2023-08-07T01:22:03;11.90;;;3.50;;
22378;SDS011;11357;49.990;7.370;2023-08-07T01:24:31;9.33;;;3.20;;
22378;SDS011;11357;49.990;7.370;2023-08-07T01:26:57;12.03;;;3.30;;
22378;SDS011;11357;49.990;7.370;2023-08-07T01:29:37;11.50;;;3.40;;
22378;SDS011;11357;49.990;7.370;2023-08-07T01:32:09;8.40;;;3.53;;
22378;SDS011;11357;49.990;7.370;2023-08-07T01:34:38;9.97;;;3.20;;
22378;SDS011;11357;49.990;7.370;2023-08-07T01:37:06;11.23;;;3.43;;
22378;SDS011;11357;49.990;7.370;2023-08-07T01:39:32;7.57;;;3.10;;
22378;SDS011;11357;49.990;7.370;2023-08-07T01:42:00;7.03;;;2.80;;
22378;SDS011;11357;49.990;7.370;2023-08-07T01:44:27;11.23;;;3.90;;
22378;SDS011;11357;49.990;7.370;2023-08-07T01:46:54;10.07;;;4.03;;
22378;SDS011;11357;49.990;7.370;2023-08-07T01:49:19;15.33;;;3.20;;
22378;SDS011;11357;49.990;7.370;2023-08-07T01:51:45;11.47;;;3.07;;
22378;SDS011;11357;49.990;7.370;2023-08-07T01:54:10;12.30;;;3.03;;
22378;SDS011;11357;49.990;7.370;2023-08-07T01:56:36;11.53;;;3.20;;
22378;SDS011;11357;49.990;7.370;2023-08-07T01:59:01;13.47;;;3.50;;
22378;SDS011;11357;49.990;7.370;2023-08-07T02:01:27;14.20;;;3.50;;
22378;SDS011;11357;49.990;7.370;2023-08-07T02:03:53;9.40;;;3.20;;
22378;SDS011;11357;49.990;7.370;2023-08-07T02:06:18;8.07;;;2.77;;
22378;SDS011;11357;49.990;7.370;2023-08-07T02:08:44;8.57;;;3.13;;
22378;SDS011;11357;49.990;7.370;2023-08-07T02:11:09;10.60;;;3.60;;
22378;SDS011;11357;49.990;7.370;2023-08-07T02:13:35;14.90;;;3.60;;
22378;SDS011;11357;49.990;7.370;2023-08-07T02:16:01;10.07;;;3.27;;
22378;SDS011;11357;49.990;7.370;2023-08-07T02:18:27;10.10;;;3.50;;
22378;SDS011;11357;49.990;7.370;2023-08-07T02:20:53;10.47;;;2.97;;
22378;SDS011;11357;49.990;7.370;2023-08-07T02:23:18;5.37;;;2.37;;
22378;SDS011;11357;49.990;7.370;2023-08-07T02:25:44;7.73;;;2.90;;
22378;SDS011;11357;49.990;7.370;2023-08-07T02:28:10;16.33;;;3.43;;
22378;SDS011;11357;49.990;7.370;2023-08-07T02:30:36;10.83;;;3.10;;
22378;SDS011;11357;49.990;7.370;2023-08-07T02:33:02;8.17;;;2.93;;
22378;SDS011;11357;49.990;7.370;2023-08-07T02:35:27;12.93;;;3.30;;
22378;SDS011;11357;49.990;7.370;2023-08-07T02:37:53;9.47;;;2.57;;
22378;SDS011;11357;49.990;7.370;2023-08-07T02:40:18;12.70;;;3.37;;
22378;SDS011;11357;49.990;7.370;2023-08-07T02:42:44;11.73;;;2.80;;
22378;SDS011;11357;49.990;7.370;2023-08-07T02:45:10;9.97;;;2.90;;
22378;SDS011;11357;49.990;7.370;2023-08-07T02:47:35;10.27;;;2.87;;
22378;SDS011;11357;49.990;7.370;2023-08-07T02:50:01;11.50;;;2.90;;
22378;SDS011;11357;49.990;7.370;2023-08-07T02:52:27;13.20;;;2.90;;
22378;SDS011;11357;49.990;7.370;2023-08-07T02:54:52;8.17;;;2.80;;
22378;SDS011;11357;49.990;7.370;2023-08-07T02:57:18;11.93;;;3.40;;
22378;SDS011;11357;49.990;7.370;2023-08-07T02:59:44;10.37;;;2.73;;
22378;SDS011;11357;49.990;7.370;2023-08-07T03:02:10;8.00;;;2.67;;
22378;SDS011;11357;49.990;7.370;2023-08-07T03:04:35;8.70;;;3.10;;
22378;SDS011;11357;49.990;7.370;2023-08-07T03:07:01;9.90;;;2.67;;
22378;SDS011;11357;49.990;7.370;2023-08-07T03:09:27;9.80;;;3.00;;
22378;SDS011;11357;49.990;7.370;2023-08-07T03:11:53;9.90;;;3.10;;
22378;SDS011;11357;49.990;7.370;2023-08-07T03:14:18;7.20;;;2.93;;
22378;SDS011;11357;49.990;7.370;2023-08-07T03:16:44;12.13;;;2.67;;
22378;SDS011;11357;49.990;7.370;2023-08-07T03:19:11;7.37;;;3.00;;
22378;SDS011;11357;49.990;7.370;2023-08-07T03:21:36;8.97;;;2.87;;
22378;SDS011;11357;49.990;7.370;2023-08-07T03:24:02;13.27;;;3.63;;
22378;SDS011;11357;49.990;7.370;2023-08-07T03:26:28;11.53;;;3.17;;
22378;SDS011;11357;49.990;7.370;2023-08-07T03:28:54;8.93;;;3.07;;
22378;SDS011;11357;49.990;7.370;2023-08-07T03:31:19;8.07;;;3.10;;
22378;SDS011;11357;49.990;7.370;2023-08-07T03:33:45;12.43;;;3.93;;
22378;SDS011;11357;49.990;7.370;2023-08-07T03:36:10;13.13;;;3.47;;
22378;SDS011;11357;49.990;7.370;2023-08-07T03:38:36;13.00;;;3.33;;
22378;SDS011;11357;49.990;7.370;2023-08-07T03:41:02;12.80;;;3.53;;
22378;SDS011;11357;49.990;7.370;2023-08-07T03:43:28;13.20;;;3.40;;
22378;SDS011;11357;49.990;7.370;2023-08-07T03:45:54;9.00;;;3.30;;
22378;SDS011;11357;49.990;7.370;2023-08-07T03:48:21;9.03;;;3.23;;
22378;SDS011;11357;49.990;7.370;2023-08-07T03:50:47;10.03;;;2.97;;
22378;SDS011;11357;49.990;7.370;2023-08-07T03:53:13;11.77;;;3.57;;
22378;SDS011;11357;49.990;7.370;2023-08-07T03:55:38;11.10;;;3.70;;
22378;SDS011;11357;49.990;7.370;2023-08-07T03:58:05;13.30;;;3.20;;
22378;SDS011;11357;49.990;7.370;2023-08-07T04:00:31;8.37;;;3.17;;
22378;SDS011;11357;49.990;7.370;2023-08-07T04:02:57;10.13;;;3.40;;
22378;SDS011;11357;49.990;7.370;2023-08-07T04:05:22;6.00;;;3.33;;
22378;SDS011;11357;49.990;7.370;2023-08-07T04:07:48;10.90;;;3.00;;
22378;SDS011;11357;49.990;7.370;2023-08-07T04:10:14;10.33;;;3.30;;
22378;SDS011;11357;49.990;7.370;2023-08-07T04:12:39;9.53;;;3.37;;
22378;SDS011;11357;49.990;7.370;2023-08-07T04:15:05;11.07;;;3.50;;
22378;SDS011;11357;49.990;7.370;2023-08-07T04:17:32;8.00;;;3.50;;
22378;SDS011;11357;49.990;7.370;2023-08-07T04:19:57;14.73;;;3.57;;
22378;SDS011;11357;49.990;7.370;2023-08-07T04:22:23;10.37;;;3.33;;
22378;SDS011;11357;49.990;7.370;2023-08-07T04:24:49;10.57;;;3.30;;
22378;SDS011;11357;49.990;7.370;2023-08-07T04:27:14;15.27;;;3.57;;
22378;SDS011;11357;49.990;7.370;2023-08-07T04:29:40;13.23;;;4.03;;
22378;SDS011;11357;49.990;7.370;2023-08-07T04:32:06;5.40;;;3.13;;
22378;SDS011;11357;49.990;7.370;2023-08-07T04:34:32;7.13;;;3.00;;
22378;SDS011;11357;49.990;7.370;2023-08-07T04:36:57;14.80;;;3.87;;
22378;SDS011;11357;49.990;7.370;2023-08-07T04:39:23;8.73;;;3.50;;
22378;SDS011;11357;49.990;7.370;2023-08-07T04:41:49;9.63;;;3.40;;
22378;SDS011;11357;49.990;7.370;2023-08-07T04:44:15;9.53;;;3.60;;
22378;SDS011;11357;49.990;7.370;2023-08-07T04:46:41;17.23;;;3.43;;
22378;SDS011;11357;49.990;7.370;2023-08-07T04:49:06;10.93;;;3.60;;
22378;SDS011;11357;49.990;7.370;2023-08-07T04:51:32;6.27;;;3.13;;
22378;SDS011;11357;49.990;7.370;2023-08-07T04:53:58;6.17;;;2.57;;
22378;SDS011;11357;49.990;7.370;2023-08-07T04:56:24;7.03;;;3.20;;
22378;SDS011;11357;49.990;7.370;2023-08-07T04:58:49;8.27;;;3.80;;
22378;SDS011;11357;49.990;7.370;2023-08-07T05:01:15;6.73;;;3.37;;
22378;SDS011;11357;49.990;7.370;2023-08-07T05:03:41;11.70;;;2.83;;
22378;SDS011;11357;49.990;7.370;2023-08-07T05:06:06;10.03;;;3.50;;
22378;SDS011;11357;49.990;7.370;2023-08-07T05:08:32;6.63;;;3.10;;
22378;SDS011;11357;49.990;7.370;2023-08-07T05:10:57;6.30;;;2.90;;
22378;SDS011;11357;49.990;7.370;2023-08-07T05:13:23;7.73;;;3.30;;
22378;SDS011;11357;49.990;7.370;2023-08-07T05:15:49;8.50;;;3.13;;
22378;SDS011;11357;49.990;7.370;2023-08-07T05:18:15;11.83;;;3.37;;
22378;SDS011;11357;49.990;7.370;2023-08-07T05:20:41;11.43;;;3.07;;
22378;SDS011;11357;49.990;7.370;2023-08-07T05:23:07;7.53;;;2.93;;
22378;SDS011;11357;49.990;7.370;2023-08-07T05:25:33;9.40;;;3.20;;
22378;SDS011;11357;49.990;7.370;2023-08-07T05:27:59;9.47;;;3.13;;
22378;SDS011;11357;49.990;7.370;2023-08-07T05:30:24;10.17;;;3.67;;
22378;SDS011;11357;49.990;7.370;2023-08-07T05:32:50;7.37;;;3.50;;
22378;SDS011;11357;49.990;7.370;2023-08-07T05:35:16;6.47;;;2.77;;
22378;SDS011;11357;49.990;7.370;2023-08-07T05:37:41;10.17;;;3.10;;
22378;SDS011;11357;49.990;7.370;2023-08-07T05:40:07;8.30;;;2.93;;
22378;SDS011;11357;49.990;7.370;2023-08-07T05:42:33;9.63;;;3.60;;
22378;SDS011;11357;49.990;7.370;2023-08-07T05:44:59;7.70;;;3.23;;
22378;SDS011;11357;49.990;7.370;2023-08-07T05:47:25;8.23;;;3.57;;
22378;SDS011;11357;49.990;7.370;2023-08-07T05:49:51;9.93;;;3.80;;
22378;SDS011;11357;49.990;7.370;2023-08-07T05:52:17;11.60;;;3.70;;
22378;SDS011;11357;49.990;7.370;2023-08-07T05:54:43;10.53;;;3.20;;
22378;SDS011;11357;49.990;7.370;2023-08-07T05:57:09;7.40;;;3.60;;
22378;SDS011;11357;49.990;7.370;2023-08-07T05:59:35;8.27;;;3.23;;
22378;SDS011;11357;49.990;7.370;2023-08-07T06:02:02;7.37;;;3.37;;
22378;SDS011;11357;49.990;7.370;2023-08-07T06:04:28;11.73;;;3.63;;
22378;SDS011;11357;49.990;7.370;2023-08-07T06:06:54;9.20;;;3.57;;
22378;SDS011;11357;49.990;7.370;2023-08-07T06:09:19;8.63;;;2.90;;
22378;SDS011;11357;49.990;7.370;2023-08-07T06:11:46;7.97;;;3.40;;
22378;SDS011;11357;49.990;7.370;2023-08-07T06:14:12;13.17;;;3.77;;
22378;SDS011;11357;49.990;7.370;2023-08-07T06:16:38;10.23;;;3.40;;
22378;SDS011;11357;49.990;7.370;2023-08-07T06:19:04;11.03;;;3.00;;
22378;SDS011;11357;49.990;7.370;2023-08-07T06:21:29;12.10;;;3.93;;
22378;SDS011;11357;49.990;7.370;2023-08-07T06:23:55;6.57;;;3.00;;
22378;SDS011;11357;49.990;7.370;2023-08-07T06:26:22;5.83;;;2.93;;
22378;SDS011;11357;49.990;7.370;2023-08-07T06:28:47;6.07;;;2.80;;
22378;SDS011;11357;49.990;7.370;2023-08-07T06:31:15;11.47;;;2.80;;
22378;SDS011;11357;49.990;7.370;2023-08-07T06:33:41;8.23;;;2.60;;
22378;SDS011;11357;49.990;7.370;2023-08-07T06:36:07;10.83;;;3.00;;
22378;SDS011;11357;49.990;7.370;2023-08-07T06:38:36;9.80;;;2.67;;
22378;SDS011;11357;49.990;7.370;2023-08-07T06:41:01;9.87;;;3.20;;
22378;SDS011;11357;49.990;7.370;2023-08-07T06:43:27;9.30;;;2.97;;
22378;SDS011;11357;49.990;7.370;2023-08-07T06:45:53;6.77;;;2.67;;
22378;SDS011;11357;49.990;7.370;2023-08-07T06:48:20;5.90;;;2.37;;
22378;SDS011;11357;49.990;7.370;2023-08-07T06:50:49;4.83;;;2.60;;
22378;SDS011;11357;49.990;7.370;2023-08-07T06:53:16;4.83;;;2.63;;
22378;SDS011;11357;49.990;7.370;2023-08-07T06:55:42;8.23;;;3.33;;
22378;SDS011;11357;49.990;7.370;2023-08-07T06:58:08;9.47;;;2.50;;
22378;SDS011;11357;49.990;7.370;2023-08-07T07:00:34;7.17;;;2.83;;
22378;SDS011;11357;49.990;7.370;2023-08-07T07:03:00;7.03;;;2.43;;
22378;SDS011;11357;49.990;7.370;2023-08-07T07:05:26;4.97;;;2.53;;
22378;SDS011;11357;49.990;7.370;2023-08-07T07:07:52;8.13;;;2.43;;
22378;SDS011;11357;49.990;7.370;2023-08-07T07:10:19;7.77;;;2.67;;
22378;SDS011;11357;49.990;7.370;2023-08-07T07:12:45;7.40;;;2.50;;
22378;SDS011;11357;49.990;7.370;2023-08-07T07:15:10;8.73;;;2.60;;
22378;SDS011;11357;49.990;7.370;2023-08-07T07:17:36;6.37;;;2.53;;
22378;SDS011;11357;49.990;7.370;2023-08-07T07:20:02;11.70;;;2.40;;
22378;SDS011;11357;49.990;7.370;2023-08-07T07:22:28;7.33;;;2.50;;
22378;SDS011;11357;49.990;7.370;2023-08-07T07:24:54;4.10;;;1.97;;
22378;SDS011;11357;49.990;7.370;2023-08-07T07:27:19;6.53;;;2.10;;
22378;SDS011;11357;49.990;7.370;2023-08-07T07:29:47;8.93;;;2.57;;
22378;SDS011;11357;49.990;7.370;2023-08-07T07:32:13;8.00;;;2.63;;
22378;SDS011;11357;49.990;7.370;2023-08-07T07:34:39;8.43;;;2.17;;
22378;SDS011;11357;49.990;7.370;2023-08-07T07:37:04;8.47;;;2.47;;
22378;SDS011;11357;49.990;7.370;2023-08-07T07:39:30;12.77;;;2.53;;
22378;SDS011;11357;49.990;7.370;2023-08-07T07:41:56;5.23;;;2.30;;
22378;SDS011;11357;49.990;7.370;2023-08-07T07:44:22;7.93;;;2.37;;
22378;SDS011;11357;49.990;7.370;2023-08-07T07:46:47;8.40;;;2.23;;
22378;SDS011;11357;49.990;7.370;2023-08-07T07:49:13;5.10;;;1.97;;
22378;SDS011;11357;49.990;7.370;2023-08-07T07:51:39;6.63;;;2.30;;
22378;SDS011;11357;49.990;7.370;2023-08-07T07:54:05;5.43;;;2.43;;
22378;SDS011;11357;49.990;7.370;2023-08-07T07:56:31;7.27;;;2.80;;
22378;SDS011;11357;49.990;7.370;2023-08-07T07:58:56;6.17;;;2.20;;
22378;SDS011;11357;49.990;7.370;2023-08-07T08:01:22;6.43;;;2.17;;
22378;SDS011;11357;49.990;7.370;2023-08-07T08:03:48;5.13;;;2.40;;
22378;SDS011;11357;49.990;7.370;2023-08-07T08:06:14;4.37;;;2.00;;
22378;SDS011;11357;49.990;7.370;2023-08-07T08:08:39;6.60;;;2.57;;
22378;SDS011;11357;49.990;7.370;2023-08-07T08:11:07;5.10;;;2.33;;
22378;SDS011;11357;49.990;7.370;2023-08-07T08:13:33;7.97;;;2.60;;
22378;SDS011;11357;49.990;7.370;2023-08-07T08:16:00;5.77;;;2.23;;
22378;SDS011;11357;49.990;7.370;2023-08-07T08:18:26;7.73;;;2.40;;
22378;SDS011;11357;49.990;7.370;2023-08-07T08:20:52;5.70;;;2.80;;
22378;SDS011;11357;49.990;7.370;2023-08-07T08:23:19;6.43;;;2.23;;
22378;SDS011;11357;49.990;7.370;2023-08-07T08:25:44;7.00;;;2.27;;
22378;SDS011;11357;49.990;7.370;2023-08-07T08:28:10;4.90;;;2.53;;
22378;SDS011;11357;49.990;7.370;2023-08-07T08:30:36;4.73;;;2.17;;
22378;SDS011;11357;49.990;7.370;2023-08-07T08:33:02;3.97;;;2.10;;
22378;SDS011;11357;49.990;7.370;2023-08-07T08:35:27;6.13;;;2.27;;
22378;SDS011;11357;49.990;7.370;2023-08-07T08:37:53;6.23;;;2.60;;
22378;SDS011;11357;49.990;7.370;2023-08-07T08:40:18;7.03;;;2.17;;
22378;SDS011;11357;49.990;7.370;2023-08-07T08:42:45;10.60;;;2.50;;
22378;SDS011;11357;49.990;7.370;2023-08-07T08:45:12;5.83;;;2.40;;
22378;SDS011;11357;49.990;7.370;2023-08-07T08:47:39;5.93;;;2.47;;
22378;SDS011;11357;49.990;7.370;2023-08-07T08:50:07;7.17;;;2.37;;
22378;SDS011;11357;49.990;7.370;2023-08-07T08:52:37;4.37;;;2.27;;
22378;SDS011;11357;49.990;7.370;2023-08-07T08:55:06;7.20;;;2.17;;
22378;SDS011;11357;49.990;7.370;2023-08-07T08:57:33;5.47;;;1.93;;
22378;SDS011;11357;49.990;7.370;2023-08-07T09:00:00;4.10;;;2.27;;
22378;SDS011;11357;49.990;7.370;2023-08-07T09:02:31;7.33;;;2.33;;
22378;SDS011;11357;49.990;7.370;2023-08-07T09:04:58;6.10;;;2.23;;
22378;SDS011;11357;49.990;7.370;2023-08-07T09:07:23;5.47;;;1.80;;
22378;SDS011;11357;49.990;7.370;2023-08-07T09:09:51;4.50;;;1.90;;
22378;SDS011;11357;49.990;7.370;2023-08-07T09:12:19;4.40;;;1.90;;
22378;SDS011;11357;49.990;7.370;2023-08-07T09:14:52;2.90;;;1.60;;
22378;SDS011;11357;49.990;7.370;2023-08-07T09:17:23;10.87;;;2.10;;
22378;SDS011;11357;49.990;7.370;2023-08-07T09:19:52;7.07;;;2.07;;
22378;SDS011;11357;49.990;7.370;2023-08-07T09:22:18;5.70;;;1.80;;
22378;SDS011;11357;49.990;7.370;2023-08-07T09:24:44;6.67;;;2.17;;
22378;SDS011;11357;49.990;7.370;2023-08-07T09:27:10;4.70;;;2.00;;
22378;SDS011;11357;49.990;7.370;2023-08-07T09:29:36;4.73;;;2.30;;
22378;SDS011;11357;49.990;7.370;2023-08-07T09:32:08;5.27;;;2.10;;
22378;SDS011;11357;49.990;7.370;2023-08-07T09:34:34;6.23;;;2.50;;
22378;SDS011;11357;49.990;7.370;2023-08-07T09:37:00;4.90;;;1.97;;
22378;SDS011;11357;49.990;7.370;2023-08-07T09:39:27;4.13;;;1.90;;
22378;SDS011;11357;49.990;7.370;2023-08-07T09:41:53;4.60;;;2.00;;
22378;SDS011;11357;49.990;7.370;2023-08-07T09:44:18;6.37;;;2.00;;
22378;SDS011;11357;49.990;7.370;2023-08-07T09:46:44;10.53;;;2.13;;
22378;SDS011;11357;49.990;7.370;2023-08-07T09:49:10;3.50;;;1.70;;
22378;SDS011;11357;49.990;7.370;2023-08-07T09:51:42;6.47;;;1.87;;
22378;SDS011;11357;49.990;7.370;2023-08-07T09:54:09;3.80;;;1.83;;
22378;SDS011;11357;49.990;7.370;2023-08-07T09:56:35;3.80;;;1.83;;
22378;SDS011;11357;49.990;7.370;2023-08-07T09:59:01;7.17;;;2.00;;
22378;SDS011;11357;49.990;7.370;2023-08-07T10:01:28;6.27;;;1.97;;
22378;SDS011;11357;49.990;7.370;2023-08-07T10:03:54;2.97;;;1.93;;
22378;SDS011;11357;49.990;7.370;2023-08-07T10:06:20;5.63;;;1.80;;
22378;SDS011;11357;49.990;7.370;2023-08-07T10:08:46;9.10;;;1.83;;
22378;SDS011;11357;49.990;7.370;2023-08-07T10:11:12;4.60;;;2.07;;
22378;SDS011;11357;49.990;7.370;2023-08-07T10:13:39;3.60;;;1.80;;
22378;SDS011;11357;49.990;7.370;2023-08-07T10:16:06;5.30;;;2.00;;
22378;SDS011;11357;49.990;7.370;2023-08-07T10:18:32;7.87;;;1.90;;
22378;SDS011;11357;49.990;7.370;2023-08-07T10:21:00;5.07;;;1.57;;
22378;SDS011;11357;49.990;7.370;2023-08-07T10:23:27;3.10;;;1.60;;
22378;SDS011;11357;49.990;7.370;2023-08-07T10:25:53;4.05;;;1.58;;
22378;SDS011;11357;49.990;7.370;2023-08-07T10:28:20;4.85;;;1.98;;
22378;SDS011;11357;49.990;7.370;2023-08-07T10:30:48;7.15;;;2.10;;
22378;SDS011;11357;49.990;7.370;2023-08-07T10:33:14;4.60;;;1.65;;
22378;SDS011;11357;49.990;7.370;2023-08-07T10:35:46;2.75;;;1.30;;
22378;SDS011;11357;49.990;7.370;2023-08-07T10:38:16;4.07;;;1.63;;
22378;SDS011;11357;49.990;7.370;2023-08-07T10:41:00;3.03;;;1.55;;
22378;SDS011;11357;49.990;7.370;2023-08-07T10:43:28;2.70;;;1.52;;
22378;SDS011;11357;49.990;7.370;2023-08-07T10:46:02;5.05;;;2.03;;
22378;SDS011;11357;49.990;7.370;2023-08-07T10:51:05;7.78;;;2.10;;
22378;SDS011;11357;49.990;7.370;2023-08-07T10:53:36;9.05;;;1.70;;
22378;SDS011;11357;49.990;7.370;2023-08-07T10:56:09;6.15;;;1.90;;
22378;SDS011;11357;49.990;7.370;2023-08-07T10:58:37;6.90;;;1.50;;
22378;SDS011;11357;49.990;7.370;2023-08-07T11:03:55;2.30;;;1.45;;
22378;SDS011;11357;49.990;7.370;2023-08-07T11:06:22;5.85;;;1.90;;
22378;SDS011;11357;49.990;7.370;2023-08-07T11:08:56;8.45;;;1.63;;
22378;SDS011;11357;49.990;7.370;2023-08-07T11:11:22;2.65;;;1.35;;
22378;SDS011;11357;49.990;7.370;2023-08-07T11:13:47;4.75;;;1.65;;
22378;SDS011;11357;49.990;7.370;2023-08-07T11:16:13;3.17;;;1.67;;
22378;SDS011;11357;49.990;7.370;2023-08-07T11:18:39;2.45;;;1.40;;
22378;SDS011;11357;49.990;7.370;2023-08-07T11:21:07;5.22;;;1.60;;
22378;SDS011;11357;49.990;7.370;2023-08-07T11:23:37;5.22;;;1.60;;
22378;SDS011;11357;49.990;7.370;2023-08-07T11:26:03;6.00;;;1.70;;
22378;SDS011;11357;49.990;7.370;2023-08-07T11:28:29;4.07;;;1.83;;
22378;SDS011;11357;49.990;7.370;2023-08-07T11:30:55;5.03;;;1.50;;
22378;SDS011;11357;49.990;7.370;2023-08-07T11:33:22;3.30;;;1.83;;
22378;SDS011;11357;49.990;7.370;2023-08-07T11:35:49;2.05;;;1.30;;
22378;SDS011;11357;49.990;7.370;2023-08-07T11:38:28;9.60;;;1.88;;
22378;SDS011;11357;49.990;7.370;2023-08-07T11:40:59;3.30;;;1.40;;
22378;SDS011;11357;49.990;7.370;2023-08-07T11:43:29;4.60;;;2.10;;
22378;SDS011;11357;49.990;7.370;2023-08-07T11:45:56;7.93;;;1.60;;
22378;SDS011;11357;49.990;7.370;2023-08-07T11:48:26;2.03;;;1.40;;
22378;SDS011;11357;49.990;7.370;2023-08-07T11:50:52;3.55;;;1.50;;
22378;SDS011;11357;49.990;7.370;2023-08-07T11:53:19;6.22;;;1.48;;
22378;SDS011;11357;49.990;7.370;2023-08-07T11:55:55;3.95;;;1.42;;
22378;SDS011;11357;49.990;7.370;2023-08-07T11:58:42;3.47;;;1.70;;
22378;SDS011;11357;49.990;7.370;2023-08-07T12:01:12;3.80;;;1.40;;
22378;SDS011;11357;49.990;7.370;2023-08-07T12:03:41;4.60;;;1.90;;
22378;SDS011;11357;49.990;7.370;2023-08-07T12:06:08;2.30;;;1.60;;
22378;SDS011;11357;49.990;7.370;2023-08-07T12:08:35;2.20;;;1.35;;
22378;SDS011;11357;49.990;7.370;2023-08-07T12:11:08;6.25;;;1.77;;
22378;SDS011;11357;49.990;7.370;2023-08-07T12:13:43;4.30;;;1.90;;
22378;SDS011;11357;49.990;7.370;2023-08-07T12:16:10;2.50;;;1.50;;
22378;SDS011;11357;49.990;7.370;2023-08-07T12:18:47;4.25;;;1.90;;
22378;SDS011;11357;49.990;7.370;2023-08-07T12:21:15;4.70;;;1.73;;
22378;SDS011;11357;49.990;7.370;2023-08-07T12:23:43;3.97;;;1.80;;
22378;SDS011;11357;49.990;7.370;2023-08-07T12:26:09;2.63;;;1.83;;
22378;SDS011;11357;49.990;7.370;2023-08-07T12:28:35;2.63;;;1.65;;
22378;SDS011;11357;49.990;7.370;2023-08-07T12:31:02;5.03;;;1.70;;
22378;SDS011;11357;49.990;7.370;2023-08-07T12:33:28;3.17;;;1.60;;
22378;SDS011;11357;49.990;7.370;2023-08-07T12:35:54;3.53;;;1.58;;
22378;SDS011;11357;49.990;7.370;2023-08-07T12:38:20;4.53;;;1.60;;
22378;SDS011;11357;49.990;7.370;2023-08-07T12:40:46;3.47;;;1.83;;
22378;SDS011;11357;49.990;7.370;2023-08-07T12:43:12;2.60;;;1.63;;
22378;SDS011;11357;49.990;7.370;2023-08-07T12:45:37;5.15;;;1.60;;
22378;SDS011;11357;49.990;7.370;2023-08-07T12:48:04;4.43;;;2.08;;
22378;SDS011;11357;49.990;7.370;2023-08-07T12:50:30;7.75;;;2.70;;
22378;SDS011;11357;49.990;7.370;2023-08-07T12:52:56;3.72;;;1.60;;
22378;SDS011;11357;49.990;7.370;2023-08-07T12:55:22;3.92;;;1.50;;
22378;SDS011;11357;49.990;7.370;2023-08-07T12:57:47;4.13;;;1.63;;
22378;SDS011;11357;49.990;7.370;2023-08-07T13:00:17;5.00;;;1.63;;
22378;SDS011;11357;49.990;7.370;2023-08-07T13:02:44;3.03;;;1.75;;
22378;SDS011;11357;49.990;7.370;2023-08-07T13:05:11;5.55;;;2.42;;
22378;SDS011;11357;49.990;7.370;2023-08-07T13:07:37;8.45;;;2.00;;
22378;SDS011;11357;49.990;7.370;2023-08-07T13:10:04;2.90;;;1.90;;
22378;SDS011;11357;49.990;7.370;2023-08-07T13:12:34;5.18;;;1.48;;
22378;SDS011;11357;49.990;7.370;2023-08-07T13:15:01;4.20;;;1.88;;
22378;SDS011;11357;49.990;7.370;2023-08-07T13:17:27;6.78;;;1.60;;
22378;SDS011;11357;49.990;7.370;2023-08-07T13:19:53;4.47;;;1.95;;
22378;SDS011;11357;49.990;7.370;2023-08-07T13:22:18;4.18;;;1.98;;
22378;SDS011;11357;49.990;7.370;2023-08-07T13:24:44;3.75;;;2.20;;
22378;SDS011;11357;49.990;7.370;2023-08-07T13:27:09;3.63;;;1.80;;
22378;SDS011;11357;49.990;7.370;2023-08-07T13:29:35;3.20;;;1.20;;
22378;SDS011;11357;49.990;7.370;2023-08-07T13:32:01;3.28;;;1.63;;
22378;SDS011;11357;49.990;7.370;2023-08-07T13:34:34;5.15;;;1.80;;
22378;SDS011;11357;49.990;7.370;2023-08-07T13:39:36;5.88;;;1.75;;
22378;SDS011;11357;49.990;7.370;2023-08-07T13:42:02;3.08;;;1.85;;
22378;SDS011;11357;49.990;7.370;2023-08-07T13:44:28;3.53;;;2.03;;
22378;SDS011;11357;49.990;7.370;2023-08-07T13:46:54;5.88;;;1.85;;
22378;SDS011;11357;49.990;7.370;2023-08-07T13:49:21;3.88;;;2.05;;
22378;SDS011;11357;49.990;7.370;2023-08-07T13:51:47;7.90;;;1.90;;
22378;SDS011;11357;49.990;7.370;2023-08-07T13:54:13;6.82;;;1.77;;
22378;SDS011;11357;49.990;7.370;2023-08-07T13:56:38;5.38;;;1.90;;
22378;SDS011;11357;49.990;7.370;2023-08-07T13:59:04;5.57;;;2.28;;
22378;SDS011;11357;49.990;7.370;2023-08-07T14:01:29;3.97;;;1.70;;
22378;SDS011;11357;49.990;7.370;2023-08-07T14:03:56;4.75;;;1.95;;
22378;SDS011;11357;49.990;7.370;2023-08-07T14:06:21;3.42;;;2.20;;
22378;SDS011;11357;49.990;7.370;2023-08-07T14:08:47;3.55;;;1.67;;
22378;SDS011;11357;49.990;7.370;2023-08-07T14:11:12;4.88;;;1.73;;
22378;SDS011;11357;49.990;7.370;2023-08-07T14:13:40;6.00;;;1.75;;
22378;SDS011;11357;49.990;7.370;2023-08-07T14:16:06;3.45;;;1.90;;
22378;SDS011;11357;49.990;7.370;2023-08-07T14:18:32;10.63;;;2.53;;
22378;SDS011;11357;49.990;7.370;2023-08-07T14:20:57;3.08;;;1.50;;
22378;SDS011;11357;49.990;7.370;2023-08-07T14:23:23;3.53;;;1.65;;
22378;SDS011;11357;49.990;7.370;2023-08-07T14:25:49;5.55;;;1.83;;
22378;SDS011;11357;49.990;7.370;2023-08-07T14:28:16;4.65;;;1.80;;
22378;SDS011;11357;49.990;7.370;2023-08-07T14:30:42;18.70;;;2.50;;
22378;SDS011;11357;49.990;7.370;2023-08-07T14:33:07;8.25;;;1.77;;
22378;SDS011;11357;49.990;7.370;2023-08-07T14:35:33;3.78;;;1.92;;
22378;SDS011;11357;49.990;7.370;2023-08-07T14:37:59;2.97;;;1.52;;
22378;SDS011;11357;49.990;7.370;2023-08-07T14:40:25;3.42;;;1.48;;
22378;SDS011;11357;49.990;7.370;2023-08-07T14:42:51;3.15;;;1.58;;
22378;SDS011;11357;49.990;7.370;2023-08-07T14:45:17;3.92;;;1.50;;
22378;SDS011;11357;49.990;7.370;2023-08-07T14:47:43;2.60;;;1.60;;
22378;SDS011;11357;49.990;7.370;2023-08-07T14:50:09;7.70;;;3.10;;